createdAt,value
2023-03-29T00:00:32.965Z,27.4054
2023-03-29T00:01:36.209Z,27.4052
2023-03-29T00:02:35.210Z,27.4024
2023-03-29T00:03:36.381Z,27.4010
2023-03-29T00:04:37.455Z,27.4022
2023-03-29T00:05:38.487Z,27.4030
2023-03-29T00:06:39.603Z,27.4044
2023-03-29T00:07:40.698Z,27.4064
2023-03-29T00:08:41.785Z,27.4078
2023-03-29T00:09:43.337Z,27.4079
2023-03-29T00:10:43.973Z,27.4070
2023-03-29T00:11:45.103Z,27.4080
2023-03-29T00:12:46.190Z,27.4074
2023-03-29T00:13:47.303Z,27.4065
2023-03-29T00:14:48.390Z,27.4045
2023-03-29T00:15:49.496Z,27.4040
2023-03-29T00:16:50.615Z,27.4033
2023-03-29T00:17:51.731Z,27.4038
2023-03-29T00:18:52.800Z,27.4027
2023-03-29T00:19:53.936Z,27.4045
2023-03-29T00:20:55.008Z,27.4047
2023-03-29T00:21:56.825Z,27.4023
2023-03-29T00:22:57.205Z,27.4011
2023-03-29T00:23:58.325Z,27.4034
2023-03-29T00:24:59.436Z,27.4037
2023-03-29T00:26:00.521Z,27.4009
2023-03-29T00:27:01.612Z,27.4010
2023-03-29T00:28:02.757Z,27.4026
2023-03-29T00:29:03.811Z,27.4017
2023-03-29T00:30:04.930Z,27.4016
2023-03-29T00:31:06.033Z,27.3995
2023-03-29T00:32:07.125Z,27.3983
2023-03-29T00:33:08.236Z,27.3990
2023-03-29T00:34:09.315Z,27.3993
2023-03-29T00:35:10.433Z,27.3998
2023-03-29T00:36:11.523Z,27.4014
2023-03-29T00:37:12.621Z,27.4028
2023-03-29T00:38:13.734Z,27.4035
2023-03-29T00:39:14.866Z,27.4040
2023-03-29T00:40:16.388Z,27.4057
2023-03-29T00:41:17.019Z,27.4071
2023-03-29T00:42:18.119Z,27.4074
2023-03-29T00:43:19.216Z,27.4085
2023-03-29T00:44:20.334Z,27.4087
2023-03-29T00:45:21.443Z,27.4067
2023-03-29T00:46:22.588Z,27.4051
2023-03-29T00:47:23.728Z,27.4053
2023-03-29T00:48:24.752Z,27.4059
2023-03-29T00:49:25.831Z,27.4071
2023-03-29T00:50:26.962Z,27.4083
2023-03-29T00:51:28.049Z,27.4095
2023-03-29T00:52:29.156Z,27.4087
2023-03-29T00:53:30.275Z,27.4080
2023-03-29T00:54:31.357Z,27.4081
2023-03-29T00:55:32.464Z,27.4071
2023-03-29T00:56:33.577Z,27.4079
2023-03-29T00:57:34.654Z,27.4071
2023-03-29T00:58:35.771Z,27.4032
2023-03-29T00:59:36.867Z,27.4025
2023-03-29T01:00:38.000Z,27.4047
2023-03-29T01:01:39.104Z,27.4044
2023-03-29T01:02:40.262Z,27.4040
2023-03-29T01:03:41.393Z,27.4050
2023-03-29T01:04:42.401Z,27.4062
2023-03-29T01:05:43.498Z,27.4056
2023-03-29T01:06:44.655Z,27.4064
2023-03-29T01:07:45.699Z,27.4085
2023-03-29T01:08:46.795Z,27.4084
2023-03-29T01:09:47.897Z,27.4086
2023-03-29T01:10:49.020Z,27.4097
2023-03-29T01:11:50.093Z,27.4078
2023-03-29T01:12:51.215Z,27.4074
2023-03-29T01:13:52.303Z,27.4089
2023-03-29T01:14:53.419Z,27.4080
2023-03-29T01:15:54.515Z,27.4067
2023-03-29T01:16:55.787Z,27.4058
2023-03-29T01:17:56.745Z,27.4062
2023-03-29T01:18:57.815Z,27.4076
2023-03-29T01:19:58.924Z,27.4114
2023-03-29T01:21:00.193Z,27.4131
2023-03-29T01:22:01.111Z,27.4140
2023-03-29T01:23:02.241Z,27.4153
2023-03-29T01:24:03.322Z,27.4158
2023-03-29T01:25:04.431Z,27.4183
2023-03-29T01:26:05.542Z,27.4216
2023-03-29T01:27:06.635Z,27.4228
2023-03-29T01:28:07.717Z,27.4213
2023-03-29T01:29:08.833Z,27.4243
2023-03-29T01:30:09.921Z,27.4282
2023-03-29T01:31:11.065Z,27.4304
2023-03-29T01:32:12.150Z,27.4305
2023-03-29T01:33:13.265Z,27.4298
2023-03-29T01:34:14.331Z,27.4322
2023-03-29T01:35:15.448Z,27.4323
2023-03-29T01:36:16.884Z,27.4327
2023-03-29T01:37:17.665Z,27.4335
2023-03-29T01:38:18.764Z,27.4329
2023-03-29T01:39:19.861Z,27.4356
2023-03-29T01:40:20.961Z,27.4374
2023-03-29T01:41:23.265Z,27.4384
2023-03-29T01:42:23.156Z,27.4391
2023-03-29T01:43:24.268Z,27.4413
2023-03-29T01:44:25.361Z,27.4398
2023-03-29T01:45:26.486Z,27.4401
2023-03-29T01:46:27.882Z,27.4419
2023-03-29T01:47:28.686Z,27.4439
2023-03-29T01:48:29.775Z,27.4438
2023-03-29T01:49:30.911Z,27.4439
2023-03-29T01:50:31.980Z,27.4421
2023-03-29T01:51:33.098Z,27.4433
2023-03-29T01:52:34.169Z,27.4444
2023-03-29T01:53:35.288Z,27.4445
2023-03-29T01:54:36.380Z,27.4464
2023-03-29T01:55:37.489Z,27.4469
2023-03-29T01:56:38.636Z,27.4457
2023-03-29T01:57:39.684Z,27.4445
2023-03-29T01:58:40.790Z,27.4432
2023-03-29T01:59:41.894Z,27.4430
2023-03-29T02:00:42.985Z,27.4444
2023-03-29T02:01:44.184Z,27.4452
2023-03-29T02:02:45.285Z,27.4460
2023-03-29T02:03:46.350Z,27.4471
2023-03-29T02:04:47.394Z,27.4483
2023-03-29T02:05:48.527Z,27.4493
2023-03-29T02:06:49.630Z,27.4507
2023-03-29T02:07:50.722Z,27.4516
2023-03-29T02:08:51.813Z,27.4502
2023-03-29T02:09:52.933Z,27.4526
2023-03-29T02:10:54.029Z,27.4547
2023-03-29T02:11:55.156Z,27.4577
2023-03-29T02:12:56.238Z,27.4582
2023-03-29T02:13:57.359Z,27.4573
2023-03-29T02:14:58.446Z,27.4601
2023-03-29T02:15:59.639Z,27.4602
2023-03-29T02:17:00.882Z,27.4618
2023-03-29T02:18:01.816Z,27.4622
2023-03-29T02:19:02.878Z,27.4616
2023-03-29T02:20:04.002Z,27.4597
2023-03-29T02:21:05.076Z,27.4592
2023-03-29T02:22:06.226Z,27.4569
2023-03-29T02:23:07.309Z,27.4565
2023-03-29T02:24:08.417Z,27.4587
2023-03-29T02:25:09.515Z,27.4620
2023-03-29T02:26:10.636Z,27.4651
2023-03-29T02:27:11.751Z,27.4660
2023-03-29T02:28:12.850Z,27.4654
2023-03-29T02:29:13.944Z,27.4633
2023-03-29T02:30:15.051Z,27.4619
2023-03-29T02:31:16.203Z,27.4597
2023-03-29T02:32:17.274Z,27.4595
2023-03-29T02:33:18.402Z,27.4562
2023-03-29T02:34:19.478Z,27.4547
2023-03-29T02:35:20.563Z,27.4573
2023-03-29T02:36:21.678Z,27.4579
2023-03-29T02:37:22.792Z,27.4576
2023-03-29T02:38:23.892Z,27.4547
2023-03-29T02:39:24.984Z,27.4519
2023-03-29T02:40:26.135Z,27.4491
2023-03-29T02:41:27.199Z,27.4497
2023-03-29T02:42:28.374Z,27.4506
2023-03-29T02:43:29.408Z,27.4500
2023-03-29T02:44:30.522Z,27.4495
2023-03-29T02:45:31.614Z,27.4537
2023-03-29T02:46:32.778Z,27.4540
2023-03-29T02:47:33.910Z,27.4510
2023-03-29T02:48:34.930Z,27.4491
2023-03-29T02:49:36.027Z,27.4478
2023-03-29T02:50:37.136Z,27.4495
2023-03-29T02:51:38.244Z,27.4528
2023-03-29T02:52:39.380Z,27.4567
2023-03-29T02:53:40.436Z,27.4592
2023-03-29T02:54:41.558Z,27.4603
2023-03-29T02:55:42.656Z,27.4600
2023-03-29T02:56:43.796Z,27.4567
2023-03-29T02:57:44.887Z,27.4533
2023-03-29T02:58:45.966Z,27.4522
2023-03-29T02:59:47.086Z,27.4491
2023-03-29T03:00:48.177Z,27.4482
2023-03-29T03:01:49.316Z,27.4473
2023-03-29T03:02:50.440Z,27.4446
2023-03-29T03:03:51.581Z,27.4420
2023-03-29T03:04:52.628Z,27.4410
2023-03-29T03:05:53.729Z,27.4422
2023-03-29T03:06:54.813Z,27.4395
2023-03-29T03:07:55.937Z,27.4390
2023-03-29T03:08:57.018Z,27.4400
2023-03-29T03:09:58.137Z,27.4389
2023-03-29T03:10:59.325Z,27.4400
2023-03-29T03:12:00.354Z,27.4396
2023-03-29T03:13:01.455Z,27.4405
2023-03-29T03:14:02.561Z,27.4417
2023-03-29T03:15:03.660Z,27.4409
2023-03-29T03:16:04.819Z,27.4409
2023-03-29T03:17:05.855Z,27.4410
2023-03-29T03:18:07.466Z,27.4398
2023-03-29T03:19:08.066Z,27.4376
2023-03-29T03:20:09.178Z,27.4381
2023-03-29T03:21:10.270Z,27.4371
2023-03-29T03:22:11.389Z,27.4385
2023-03-29T03:23:12.478Z,27.4397
2023-03-29T03:24:13.573Z,27.4400
2023-03-29T03:25:14.673Z,27.4373
2023-03-29T03:26:15.789Z,27.4364
2023-03-29T03:27:16.867Z,27.4379
2023-03-29T03:28:18.419Z,27.4360
2023-03-29T03:29:19.079Z,27.4357
2023-03-29T03:30:20.249Z,27.4356
2023-03-29T03:31:21.442Z,27.4353
2023-03-29T03:32:22.458Z,27.4361
2023-03-29T03:33:23.559Z,27.4344
2023-03-29T03:34:24.648Z,27.4347
2023-03-29T03:35:25.762Z,27.4336
2023-03-29T03:36:26.854Z,27.4329
2023-03-29T03:37:27.973Z,27.4320
2023-03-29T03:38:29.063Z,27.4297
2023-03-29T03:39:30.137Z,27.4308
2023-03-29T03:40:31.238Z,27.4310
2023-03-29T03:41:32.329Z,27.4311
2023-03-29T03:42:33.441Z,27.4295
2023-03-29T03:43:34.604Z,27.4281
2023-03-29T03:44:35.648Z,27.4278
2023-03-29T03:45:36.722Z,27.4278
2023-03-29T03:46:37.844Z,27.4279
2023-03-29T03:47:38.967Z,27.4267
2023-03-29T03:48:40.053Z,27.4272
2023-03-29T03:49:41.114Z,27.4296
2023-03-29T03:50:42.237Z,27.4277
2023-03-29T03:51:43.335Z,27.4280
2023-03-29T03:52:44.434Z,27.4273
2023-03-29T03:53:45.545Z,27.4287
2023-03-29T03:54:46.644Z,27.4294
2023-03-29T03:55:47.737Z,27.4290
2023-03-29T03:56:48.884Z,27.4275
2023-03-29T03:57:49.944Z,27.4288
2023-03-29T03:58:51.076Z,27.4293
2023-03-29T03:59:52.150Z,27.4283
2023-03-29T04:00:53.309Z,27.4270
2023-03-29T04:01:54.349Z,27.4250
2023-03-29T04:02:55.555Z,27.4263
2023-03-29T04:03:56.649Z,27.4281
2023-03-29T04:04:57.684Z,27.4295
2023-03-29T04:05:58.774Z,27.4294
2023-03-29T04:06:59.873Z,27.4282
2023-03-29T04:08:00.971Z,27.4297
2023-03-29T04:09:02.119Z,27.4316
2023-03-29T04:10:03.202Z,27.4288
2023-03-29T04:11:04.464Z,27.4273
2023-03-29T04:12:05.371Z,27.4261
2023-03-29T04:13:06.515Z,27.4256
2023-03-29T04:14:07.600Z,27.4243
2023-03-29T04:15:08.717Z,27.4256
2023-03-29T04:16:09.846Z,27.4271
2023-03-29T04:17:10.897Z,27.4275
2023-03-29T04:18:12.034Z,27.4278
2023-03-29T04:19:13.110Z,27.4282
2023-03-29T04:20:14.163Z,27.4294
2023-03-29T04:21:15.298Z,27.4303
2023-03-29T04:22:16.365Z,27.4307
2023-03-29T04:23:17.480Z,27.4310
2023-03-29T04:24:18.582Z,27.4302
2023-03-29T04:25:19.680Z,27.4306
2023-03-29T04:26:20.766Z,27.4299
2023-03-29T04:27:21.884Z,27.4320
2023-03-29T04:28:22.969Z,27.4311
2023-03-29T04:29:24.116Z,27.4331
2023-03-29T04:30:25.192Z,27.4337
2023-03-29T04:31:26.300Z,27.4356
2023-03-29T04:32:27.382Z,27.4336
2023-03-29T04:33:28.473Z,27.4336
2023-03-29T04:34:29.588Z,27.4338
2023-03-29T04:35:30.703Z,27.4344
2023-03-29T04:36:31.765Z,27.4334
2023-03-29T04:37:32.888Z,27.4325
2023-03-29T04:38:33.967Z,27.4317
2023-03-29T04:39:35.136Z,27.4316
2023-03-29T04:40:36.168Z,27.4336
2023-03-29T04:41:37.265Z,27.4332
2023-03-29T04:42:38.378Z,27.4334
2023-03-29T04:43:40.352Z,27.4332
2023-03-29T04:44:40.673Z,27.4328
2023-03-29T04:45:41.709Z,27.4342
2023-03-29T04:46:42.833Z,27.4349
2023-03-29T04:47:43.929Z,27.4338
2023-03-29T04:48:45.001Z,27.4320
2023-03-29T04:49:46.129Z,27.4330
2023-03-29T04:50:47.200Z,27.4341
2023-03-29T04:51:48.309Z,27.4335
2023-03-29T04:52:49.393Z,27.4347
2023-03-29T04:53:50.508Z,27.4356
2023-03-29T04:54:51.619Z,27.4367
2023-03-29T04:55:52.709Z,27.4383
2023-03-29T04:56:53.840Z,27.4372
2023-03-29T04:57:54.906Z,27.4379
2023-03-29T04:58:55.996Z,27.4378
2023-03-29T04:59:57.481Z,27.4360
2023-03-29T05:00:58.199Z,27.4350
2023-03-29T05:01:59.334Z,27.4353
2023-03-29T05:03:00.611Z,27.4357
2023-03-29T05:04:01.568Z,27.4351
2023-03-29T05:05:02.654Z,27.4348
2023-03-29T05:06:03.910Z,27.4343
2023-03-29T05:07:04.979Z,27.4332
2023-03-29T05:08:05.901Z,27.4313
2023-03-29T05:09:06.988Z,27.4321
2023-03-29T05:10:08.119Z,27.4319
2023-03-29T05:11:09.196Z,27.4310
2023-03-29T05:12:10.307Z,27.4281
2023-03-29T05:13:11.396Z,27.4277
2023-03-29T05:14:12.504Z,27.4275
2023-03-29T05:15:13.618Z,27.4283
2023-03-29T05:16:14.770Z,27.4284
2023-03-29T05:17:15.796Z,27.4289
2023-03-29T05:18:16.908Z,27.4301
2023-03-29T05:19:18.003Z,27.4301
2023-03-29T05:20:19.145Z,27.4310
2023-03-29T05:21:20.201Z,27.4288
2023-03-29T05:22:21.313Z,27.4293
2023-03-29T05:23:22.396Z,27.4272
2023-03-29T05:24:23.524Z,27.4270
2023-03-29T05:25:24.623Z,27.4307
2023-03-29T05:26:25.741Z,27.4310
2023-03-29T05:27:26.789Z,27.4315
2023-03-29T05:28:27.914Z,27.4324
2023-03-29T05:29:29.014Z,27.4314
2023-03-29T05:30:30.482Z,27.4316
2023-03-29T05:31:31.252Z,27.4317
2023-03-29T05:32:32.422Z,27.4329
2023-03-29T05:33:33.404Z,27.4325
2023-03-29T05:34:34.551Z,27.4319
2023-03-29T05:35:35.649Z,27.4332
2023-03-29T05:36:36.731Z,27.4328
2023-03-29T05:37:37.830Z,27.4334
2023-03-29T05:38:38.938Z,27.4345
2023-03-29T05:39:40.022Z,27.4348
2023-03-29T05:40:41.176Z,27.4371
2023-03-29T05:41:42.227Z,27.4389
2023-03-29T05:42:43.356Z,27.4376
2023-03-29T05:43:44.421Z,27.4377
2023-03-29T05:44:45.538Z,27.4383
2023-03-29T05:45:46.741Z,27.4385
2023-03-29T05:46:47.744Z,27.4369
2023-03-29T05:47:48.873Z,27.4368
2023-03-29T05:48:49.958Z,27.4381
2023-03-29T05:49:51.056Z,27.4383
2023-03-29T05:50:52.146Z,27.4377
2023-03-29T05:51:53.226Z,27.4373
2023-03-29T05:52:54.356Z,27.4378
2023-03-29T05:53:55.452Z,27.4362
2023-03-29T05:54:56.552Z,27.4380
2023-03-29T05:55:57.647Z,27.4360
2023-03-29T05:56:58.778Z,27.4362
2023-03-29T05:57:59.850Z,27.4361
2023-03-29T05:59:00.954Z,27.4367
2023-03-29T06:00:02.085Z,27.4358
2023-03-29T06:01:03.345Z,27.4352
2023-03-29T06:02:04.243Z,27.4381
2023-03-29T06:03:17.534Z,27.4410
2023-03-29T06:04:07.495Z,27.4364
2023-03-29T06:05:07.606Z,27.4372
2023-03-29T06:06:08.662Z,27.4395
2023-03-29T06:07:09.759Z,27.4416
2023-03-29T06:08:10.838Z,27.4422
2023-03-29T06:09:11.972Z,27.4432
2023-03-29T06:10:13.068Z,27.4426
2023-03-29T06:11:14.201Z,27.4423
2023-03-29T06:12:15.270Z,27.4324
2023-03-29T06:13:16.397Z,27.3878
2023-03-29T06:14:17.477Z,27.3705
2023-03-29T06:15:18.595Z,27.3464
2023-03-29T06:16:19.979Z,27.3089
2023-03-29T06:17:20.851Z,27.2986
2023-03-29T06:18:21.895Z,27.3025
2023-03-29T06:19:23.005Z,27.3144
2023-03-29T06:20:24.096Z,27.3436
2023-03-29T06:21:25.219Z,27.3721
2023-03-29T06:22:26.285Z,27.3966
2023-03-29T06:23:27.405Z,27.4206
2023-03-29T06:24:28.508Z,27.4393
2023-03-29T06:25:29.634Z,27.4525
2023-03-29T06:26:30.725Z,27.4655
2023-03-29T06:27:31.851Z,27.4777
2023-03-29T06:28:32.961Z,27.4844
2023-03-29T06:29:34.047Z,27.4681
2023-03-29T06:30:35.136Z,27.4194
2023-03-29T06:31:36.374Z,27.3360
2023-03-29T06:32:37.359Z,27.2850
2023-03-29T06:33:38.454Z,27.2183
2023-03-29T06:34:39.546Z,27.2049
2023-03-29T06:35:40.675Z,27.2100
2023-03-29T06:36:41.758Z,27.2303
2023-03-29T06:37:42.854Z,27.2628
2023-03-29T06:38:43.975Z,27.2859
2023-03-29T06:39:45.079Z,27.3358
2023-03-29T06:40:46.162Z,27.3790
2023-03-29T06:41:47.296Z,27.4265
2023-03-29T06:42:48.414Z,27.4733
2023-03-29T06:43:49.510Z,27.5087
2023-03-29T06:44:50.572Z,27.5288
2023-03-29T06:45:51.695Z,27.5028
2023-03-29T06:46:52.866Z,27.4403
2023-03-29T06:47:53.985Z,27.3594
2023-03-29T06:48:55.001Z,27.2906
2023-03-29T06:49:56.105Z,27.1888
2023-03-29T06:50:57.179Z,27.0678
2023-03-29T06:51:58.345Z,27.0658
2023-03-29T06:52:59.389Z,27.1230
2023-03-29T06:54:00.510Z,27.1900
2023-03-29T06:55:01.687Z,27.2585
2023-03-29T06:56:02.705Z,27.3136
2023-03-29T06:57:03.832Z,27.3638
2023-03-29T06:58:04.898Z,27.4103
2023-03-29T06:59:06.000Z,27.4522
2023-03-29T07:00:07.103Z,27.4904
2023-03-29T07:01:08.412Z,27.5243
2023-03-29T07:02:09.420Z,27.5474
2023-03-29T07:03:10.423Z,27.5754
2023-03-29T07:04:11.531Z,27.5940
2023-03-29T07:05:12.578Z,27.6139
2023-03-29T07:06:13.703Z,27.6314
2023-03-29T07:07:14.809Z,27.6530
2023-03-29T07:08:15.882Z,27.6600
2023-03-29T07:09:19.347Z,27.5628
2023-03-29T07:10:18.086Z,27.4925
2023-03-29T07:11:19.169Z,27.4960
2023-03-29T07:12:20.496Z,27.5325
2023-03-29T07:13:21.356Z,27.5750
2023-03-29T07:14:22.492Z,27.6132
2023-03-29T07:15:23.563Z,27.6514
2023-03-29T07:16:24.763Z,27.6840
2023-03-29T07:17:25.811Z,27.7094
2023-03-29T07:18:26.852Z,27.7287
2023-03-29T07:19:27.962Z,27.7435
2023-03-29T07:20:29.057Z,27.7600
2023-03-29T07:21:30.169Z,27.7880
2023-03-29T07:22:31.408Z,27.8127
2023-03-29T07:23:32.362Z,27.8314
2023-03-29T07:24:33.456Z,27.8442
2023-03-29T07:25:34.570Z,27.8529
2023-03-29T07:26:35.637Z,27.8615
2023-03-29T07:27:36.784Z,27.8786
2023-03-29T07:28:37.848Z,27.8961
2023-03-29T07:29:38.975Z,27.9051
2023-03-29T07:30:40.031Z,27.9135
2023-03-29T07:31:41.210Z,27.9182
2023-03-29T07:32:42.403Z,27.9368
2023-03-29T07:33:43.607Z,27.9515
2023-03-29T07:34:44.519Z,27.9653
2023-03-29T07:35:45.645Z,27.9766
2023-03-29T07:36:46.689Z,27.9890
2023-03-29T07:37:48.015Z,28.0055
2023-03-29T07:38:48.910Z,28.0180
2023-03-29T07:39:49.994Z,28.0277
2023-03-29T07:40:51.071Z,28.0350
2023-03-29T07:41:52.188Z,28.0375
2023-03-29T07:42:53.291Z,28.0356
2023-03-29T07:43:54.382Z,28.0411
2023-03-29T07:44:55.469Z,28.0526
2023-03-29T07:45:56.608Z,28.0714
2023-03-29T07:46:57.650Z,28.0818
2023-03-29T07:47:59.050Z,28.0901
2023-03-29T07:48:59.859Z,28.0909
2023-03-29T07:50:00.977Z,28.0971
2023-03-29T07:51:02.267Z,28.1039
2023-03-29T07:52:03.152Z,28.1140
2023-03-29T07:53:04.306Z,28.1245
2023-03-29T07:54:05.417Z,28.1336
2023-03-29T07:55:06.453Z,28.1443
2023-03-29T07:56:07.553Z,28.1558
2023-03-29T07:57:08.722Z,28.1635
2023-03-29T07:58:10.018Z,28.1669
2023-03-29T07:59:10.888Z,28.1705
2023-03-29T08:00:11.962Z,28.1737
2023-03-29T08:01:15.372Z,28.1858
2023-03-29T08:02:14.194Z,28.1926
2023-03-29T08:03:15.659Z,28.1995
2023-03-29T08:04:16.438Z,28.2077
2023-03-29T08:05:23.272Z,28.2161
2023-03-29T08:06:19.561Z,28.1973
2023-03-29T08:07:19.650Z,28.1716
2023-03-29T08:08:20.772Z,28.1539
2023-03-29T08:09:21.908Z,28.1503
2023-03-29T08:10:22.989Z,28.1434
2023-03-29T08:11:24.045Z,28.1445
2023-03-29T08:12:25.176Z,28.1191
2023-03-29T08:13:26.279Z,28.0829
2023-03-29T08:14:27.359Z,28.0837
2023-03-29T08:15:28.447Z,28.0906
2023-03-29T08:16:29.659Z,28.0771
2023-03-29T08:17:30.716Z,28.0746
2023-03-29T08:18:34.127Z,28.0635
2023-03-29T08:19:32.860Z,28.0561
2023-03-29T08:20:33.965Z,28.0799
2023-03-29T08:21:35.068Z,28.0801
2023-03-29T08:22:36.198Z,28.0929
2023-03-29T08:23:37.273Z,28.1105
2023-03-29T08:24:38.400Z,28.1258
2023-03-29T08:25:39.462Z,28.1436
2023-03-29T08:26:40.578Z,28.1589
2023-03-29T08:27:41.686Z,28.1644
2023-03-29T08:28:43.118Z,28.1633
2023-03-29T08:29:43.877Z,28.1660
2023-03-29T08:30:45.044Z,28.1644
2023-03-29T08:31:46.064Z,28.1569
2023-03-29T08:32:49.893Z,28.1605
2023-03-29T08:33:48.530Z,28.1568
2023-03-29T08:34:49.391Z,28.1680
2023-03-29T08:35:50.532Z,28.1594
2023-03-29T08:36:51.710Z,28.1423
2023-03-29T08:37:52.847Z,28.1636
2023-03-29T08:38:53.803Z,28.1711
2023-03-29T08:39:54.863Z,28.1770
2023-03-29T08:40:55.981Z,28.1773
2023-03-29T08:41:57.073Z,28.1678
2023-03-29T08:42:58.174Z,28.1491
2023-03-29T08:43:59.282Z,28.1508
2023-03-29T08:45:00.383Z,28.1482
2023-03-29T08:46:01.513Z,28.1483
2023-03-29T08:47:02.611Z,28.1430
2023-03-29T08:48:03.708Z,28.1380
2023-03-29T08:49:04.864Z,28.1139
2023-03-29T08:50:05.931Z,28.1223
2023-03-29T08:51:09.432Z,28.1556
2023-03-29T08:52:08.209Z,28.1690
2023-03-29T08:53:09.185Z,28.1754
2023-03-29T08:54:10.295Z,28.1958
2023-03-29T08:55:11.354Z,28.2054
2023-03-29T08:56:12.454Z,28.1929
2023-03-29T08:57:13.601Z,28.2002
2023-03-29T08:58:14.642Z,28.2196
2023-03-29T08:59:24.424Z,28.2329
2023-03-29T09:00:17.823Z,28.2300
2023-03-29T09:01:18.015Z,28.2371
2023-03-29T09:02:19.270Z,28.2444
2023-03-29T09:03:20.220Z,28.2435
2023-03-29T09:04:21.245Z,28.2395
2023-03-29T09:05:22.350Z,28.2379
2023-03-29T09:06:23.422Z,28.2479
2023-03-29T09:07:26.544Z,28.2612
2023-03-29T09:08:25.636Z,28.2631
2023-03-29T09:09:26.747Z,28.2616
2023-03-29T09:10:27.830Z,28.2385
2023-03-29T09:11:28.929Z,28.2469
2023-03-29T09:12:30.062Z,28.2462
2023-03-29T09:13:31.166Z,28.2320
2023-03-29T09:14:32.250Z,28.2299
2023-03-29T09:15:33.333Z,28.2334
2023-03-29T09:16:34.538Z,28.2295
2023-03-29T09:17:35.595Z,28.2300
2023-03-29T09:18:36.609Z,28.2253
2023-03-29T09:19:37.748Z,28.2296
2023-03-29T09:20:38.819Z,28.2301
2023-03-29T09:21:39.930Z,28.2285
2023-03-29T09:22:41.093Z,28.2316
2023-03-29T09:23:42.131Z,28.2254
2023-03-29T09:24:43.231Z,28.2107
2023-03-29T09:25:53.179Z,28.1718
2023-03-29T09:26:46.440Z,28.1805
2023-03-29T09:27:46.520Z,28.2136
2023-03-29T09:28:47.626Z,28.2832
2023-03-29T09:29:48.747Z,28.3417
2023-03-29T09:30:49.809Z,28.3789
2023-03-29T09:31:50.952Z,28.4104
2023-03-29T09:32:52.137Z,28.4226
2023-03-29T09:33:53.113Z,28.4150
2023-03-29T09:34:54.219Z,28.4088
2023-03-29T09:35:55.333Z,28.4144
2023-03-29T09:36:56.414Z,28.4209
2023-03-29T09:37:57.510Z,28.4314
2023-03-29T09:38:58.601Z,28.4291
2023-03-29T09:39:59.723Z,28.4431
2023-03-29T09:41:00.911Z,28.4481
2023-03-29T09:42:01.891Z,28.4443
2023-03-29T09:43:02.979Z,28.4418
2023-03-29T09:44:04.083Z,28.4384
2023-03-29T09:45:05.193Z,28.4453
2023-03-29T09:46:06.320Z,28.4566
2023-03-29T09:47:07.402Z,28.4570
2023-03-29T09:48:08.529Z,28.4641
2023-03-29T09:49:09.603Z,28.4844
2023-03-29T09:50:19.820Z,28.5021
2023-03-29T09:51:12.775Z,28.4921
2023-03-29T09:52:12.940Z,28.4765
2023-03-29T09:53:13.980Z,28.4793
2023-03-29T09:54:15.093Z,28.4848
2023-03-29T09:55:16.234Z,28.4835
2023-03-29T09:56:17.292Z,28.4759
2023-03-29T09:57:18.437Z,28.4653
2023-03-29T09:58:19.524Z,28.4734
2023-03-29T09:59:20.570Z,28.4772
2023-03-29T10:00:21.713Z,28.4729
2023-03-29T10:01:22.862Z,28.4771
2023-03-29T10:02:23.942Z,28.4776
2023-03-29T10:03:24.987Z,28.4854
2023-03-29T10:04:26.200Z,28.4910
2023-03-29T10:05:27.571Z,28.4948
2023-03-29T10:06:28.300Z,28.4938
2023-03-29T10:07:29.391Z,28.4973
2023-03-29T10:08:30.511Z,28.5021
2023-03-29T10:09:31.581Z,28.4993
2023-03-29T10:10:32.722Z,28.4934
2023-03-29T10:11:33.801Z,28.4960
2023-03-29T10:12:34.880Z,28.5028
2023-03-29T10:13:35.975Z,28.5046
2023-03-29T10:14:37.149Z,28.4982
2023-03-29T10:15:38.180Z,28.5121
2023-03-29T10:16:39.303Z,28.4579
2023-03-29T10:17:40.435Z,28.2634
2023-03-29T10:18:41.534Z,28.0239
2023-03-29T10:19:42.551Z,27.9186
2023-03-29T10:20:43.682Z,27.8631
2023-03-29T10:21:44.757Z,27.8242
2023-03-29T10:22:45.870Z,27.7773
2023-03-29T10:23:47.087Z,27.7141
2023-03-29T10:24:48.048Z,27.7098
2023-03-29T10:25:49.165Z,27.7305
2023-03-29T10:26:50.246Z,27.7739
2023-03-29T10:27:51.336Z,27.8002
2023-03-29T10:28:52.783Z,27.8224
2023-03-29T10:29:53.523Z,27.8071
2023-03-29T10:30:54.651Z,27.8179
2023-03-29T10:31:55.781Z,27.7953
2023-03-29T10:32:56.931Z,27.7789
2023-03-29T10:33:57.908Z,27.7817
2023-03-29T10:34:59.021Z,27.7924
2023-03-29T10:36:00.617Z,27.7813
2023-03-29T10:37:01.407Z,27.7242
2023-03-29T10:38:02.276Z,27.6943
2023-03-29T10:39:05.771Z,27.6890
2023-03-29T10:40:04.493Z,27.6767
2023-03-29T10:41:05.602Z,27.6687
2023-03-29T10:42:06.667Z,27.6814
2023-03-29T10:43:07.778Z,27.6870
2023-03-29T10:44:08.869Z,27.6801
2023-03-29T10:45:09.974Z,27.6434
2023-03-29T10:46:11.159Z,27.5812
2023-03-29T10:47:12.175Z,27.5708
2023-03-29T10:48:13.268Z,27.5328
2023-03-29T10:49:14.375Z,27.4315
2023-03-29T10:50:15.484Z,27.4013
2023-03-29T10:51:16.644Z,27.4072
2023-03-29T10:52:17.638Z,27.3608
2023-03-29T10:53:18.744Z,27.2514
2023-03-29T10:54:19.817Z,27.1616
2023-03-29T10:55:20.924Z,27.1377
2023-03-29T10:56:22.028Z,27.0810
2023-03-29T10:57:23.179Z,27.0084
2023-03-29T10:58:24.191Z,26.9333
2023-03-29T10:59:25.292Z,26.8615
2023-03-29T11:00:26.397Z,26.8920
2023-03-29T11:01:27.583Z,26.9649
2023-03-29T11:02:28.640Z,27.0087
2023-03-29T11:03:29.752Z,27.0240
2023-03-29T11:04:30.796Z,27.0567
2023-03-29T11:05:31.897Z,27.0662
2023-03-29T11:06:32.997Z,26.9014
2023-03-29T11:07:34.113Z,26.7859
2023-03-29T11:08:35.172Z,26.8285
2023-03-29T11:09:36.288Z,26.8917
2023-03-29T11:10:37.373Z,26.9543
2023-03-29T11:11:38.570Z,26.9843
2023-03-29T11:12:39.569Z,27.0033
2023-03-29T11:13:40.676Z,27.0245
2023-03-29T11:14:41.761Z,27.0615
2023-03-29T11:15:42.905Z,27.0956
2023-03-29T11:16:44.087Z,27.1154
2023-03-29T11:17:45.122Z,27.1203
2023-03-29T11:18:46.147Z,27.1387
2023-03-29T11:19:47.438Z,27.2045
2023-03-29T11:20:48.364Z,27.2759
2023-03-29T11:21:49.575Z,27.2978
2023-03-29T11:22:50.552Z,27.3106
2023-03-29T11:23:51.648Z,27.3175
2023-03-29T11:24:52.722Z,27.3083
2023-03-29T11:25:53.830Z,27.3142
2023-03-29T11:26:54.933Z,27.3586
2023-03-29T11:27:56.023Z,27.4179
2023-03-29T11:28:57.117Z,27.4807
2023-03-29T11:29:58.244Z,27.5282
2023-03-29T11:30:59.348Z,27.5777
2023-03-29T11:32:00.588Z,27.6284
2023-03-29T11:33:01.641Z,27.6725
2023-03-29T11:34:02.692Z,27.7209
2023-03-29T11:35:03.784Z,27.7689
2023-03-29T11:36:05.011Z,27.8104
2023-03-29T11:37:06.020Z,27.8417
2023-03-29T11:38:07.067Z,27.8616
2023-03-29T11:39:08.176Z,27.8865
2023-03-29T11:40:09.273Z,27.9040
2023-03-29T11:41:10.382Z,27.9213
2023-03-29T11:42:11.486Z,27.9394
2023-03-29T11:43:12.587Z,27.9626
2023-03-29T11:44:13.656Z,27.9926
2023-03-29T11:45:14.790Z,28.0219
2023-03-29T11:46:15.955Z,28.0442
2023-03-29T11:47:16.972Z,28.0720
2023-03-29T11:48:18.071Z,28.0916
2023-03-29T11:49:19.170Z,28.1110
2023-03-29T11:50:20.263Z,28.1379
2023-03-29T11:51:21.377Z,28.1700
2023-03-29T11:52:22.509Z,28.2000
2023-03-29T11:53:23.558Z,28.2217
2023-03-29T11:54:24.667Z,28.2377
2023-03-29T11:55:25.757Z,28.2484
2023-03-29T11:56:26.859Z,28.2582
2023-03-29T11:57:28.021Z,28.2705
2023-03-29T11:58:29.578Z,28.2839
2023-03-29T11:59:30.176Z,28.2888
2023-03-29T12:00:31.272Z,28.2836
2023-03-29T12:01:32.370Z,28.2940
2023-03-29T12:02:33.559Z,28.2986
2023-03-29T12:03:34.617Z,28.3014
2023-03-29T12:04:35.655Z,28.3090
2023-03-29T12:05:36.773Z,28.3203
2023-03-29T12:06:37.954Z,28.3279
2023-03-29T12:07:38.982Z,28.3322
2023-03-29T12:08:40.057Z,28.3371
2023-03-29T12:09:41.164Z,28.3483
2023-03-29T12:10:42.255Z,28.3583
2023-03-29T12:11:43.376Z,28.3710
2023-03-29T12:12:44.500Z,28.3735
2023-03-29T12:13:45.581Z,28.3682
2023-03-29T12:14:46.660Z,28.3672
2023-03-29T12:15:47.789Z,28.3803
2023-03-29T12:16:48.969Z,28.3352
2023-03-29T12:17:50.013Z,28.1974
2023-03-29T12:18:51.057Z,28.1081